Castle Cary, United Kingdom
Current Conditions -  °F | °C
As of 1:50 PM on Thursday 30 Oct 2014 (Local Time) from EGDY Reporting Station
Haze Haze  
Wind Chill: 64°   Ceiling: Unl
Heat Index: 64°   Visibility: 5mi
Dew Point: 59°   Wind: 10mph
Humidity: 83%   Direction: 170°S
Pressure: 30.03"   Gusts: NA
Location:  51.09°N, 2.51°W
Report Text: EGDY 301350Z 17009KT 8000 HZ FEW010 18/15 Q1017 BLU BECMG SCT015 WHT
Loading
Personal Weather Stations






























Interactive Weather Map
Tropical Storm Tracking
New forecast layout! Learn more

10-Day Weather Forecast

Advertisements
Track Severe Weather on mobile